Time;durP1;ratioP1;P1;durP2;ratioP2;P2;SDS_P1;SDS_P2;PMS_P1;PMS_P2;Temp;Humidity;BMP_temperature;BMP_pressure;BME280_temperature;BME280_humidity;BME280_pressure;Samples;Min_cycle;Max_cycle;Signal;HPM_P1;HPM_P2
2023/11/26 00:01:04;;;;;;;;;;;;;;;-144.99;100.00;67352.69;5073415;28;19969;-76
2023/11/26 00:03:29;;;;;;;;;;;;;;;-144.99;100.00;67352.69;5073206;28;20041;-75
2023/11/26 00:05:55;;;;;;;;;;;;;;;-144.99;100.00;67352.69;5090715;28;20069;-76
2023/11/26 00:08:20;;;;;;;;;;;;;;;-144.99;100.00;67352.69;5092960;28;20333;-77
2023/11/26 00:10:45;;;;;;;;;;;;;;;-144.99;100.00;67352.69;5092666;28;19916;-76
2023/11/26 00:13:10;;;;;;;;;;;;;;;-144.99;100.00;67352.69;5094240;28;19972;-77
2023/11/26 00:15:36;;;;;;;;;;;;;;;-144.99;100.00;67352.69;5095419;28;19918;-76
2023/11/26 00:18:01;;;;;;;;;;;;;;;-144.99;100.00;67352.69;5077195;28;19936;-76
2023/11/26 00:20:27;;;;;;;;;;;;;;;-144.99;100.00;67352.69;5095252;28;19924;-76
2023/11/26 00:22:52;;;;;;;;;;;;;;;-144.99;100.00;67352.69;5077142;28;19965;-76
2023/11/26 00:25:17;;;;;;;;;;;;;;;-144.99;100.00;67352.69;5076859;28;19912;-76
2023/11/26 00:27:42;;;;;;;;;;;;;;;-144.99;100.00;67352.69;5094932;28;20306;-76
2023/11/26 00:30:08;;;;;;;;;;;;;;;-144.99;100.00;67352.69;5095100;28;20436;-76
2023/11/26 00:32:33;;;;;;;;;;;;;;;-144.99;100.00;67352.69;5095153;28;19923;-76
2023/11/26 00:34:58;;;;;;;;;;;;;;;-144.99;100.00;67352.69;5094968;28;19913;-76
2023/11/26 00:37:24;;;;;;;;;;;;;;;-144.99;100.00;67352.69;5094855;28;19912;-76
2023/11/26 00:39:49;;;;;;;;;;;;;;;-144.99;100.00;67352.69;5094991;28;19955;-76
2023/11/26 00:42:14;;;;;;;;;;;;;;;-144.99;100.00;67352.69;5094829;28;19916;-76
2023/11/26 00:44:39;;;;;;;;;;;;;;;-144.99;100.00;67352.69;5094819;28;19919;-76
2023/11/26 00:47:05;;;;;;;;;;;;;;;-144.99;100.00;67352.69;5076525;28;19912;-76
2023/11/26 00:49:30;;;;;;;;;;;;;;;-144.99;100.00;67352.69;5094583;28;19963;-76
2023/11/26 00:51:55;;;;;;;;;;;;;;;-144.99;100.00;67352.69;5094803;28;19912;-76
2023/11/26 00:54:20;;;;;;;;;;;;;;;-144.99;100.00;67352.69;5094497;28;19912;-76
2023/11/26 00:56:45;;;;;;;;;;;;;;;-144.99;100.00;67352.69;5094365;28;19916;-76
2023/11/26 00:59:12;;;;;;;;;;;;;;;-144.99;100.00;67352.69;5094593;28;19916;-76
2023/11/26 01:01:37;;;;;;;;;;;;;;;-144.99;100.00;67352.69;5076332;28;19912;-76
2023/11/26 01:04:03;;;;;;;;;;;;;;;-144.99;100.00;67352.69;5094395;28;19922;-76
2023/11/26 01:06:28;;;;;;;;;;;;;;;-144.99;100.00;67352.69;5076198;28;19950;-76
2023/11/26 01:08:53;;;;;;;;;;;;;;;-144.99;100.00;67352.69;5094260;28;19919;-76
2023/11/26 01:11:19;;;;;;;;;;;;;;;-144.99;100.00;67352.69;5075989;28;19923;-76
2023/11/26 01:13:44;;;;;;;;;;;;;;;-144.99;100.00;67352.69;5094195;28;19938;-76
2023/11/26 01:16:09;;;;;;;;;;;;;;;-144.99;100.00;67352.69;5075951;28;20015;-76
2023/11/26 01:18:36;;;;;;;;;;;;;;;-144.99;100.00;67352.69;5094150;28;20369;-76
2023/11/26 01:21:01;;;;;;;;;;;;;;;-144.99;100.00;67352.69;5071444;28;19916;-76
2023/11/26 01:23:27;;;;;;;;;;;;;;;-144.99;100.00;67352.69;5093723;28;19963;-76
2023/11/26 01:25:53;;;;;;;;;;;;;;;-144.99;100.00;67352.69;5075804;28;19919;-76
2023/11/26 01:28:18;;;;;;;;;;;;;;;-144.99;100.00;67352.69;5075694;28;20248;-76
2023/11/26 01:30:44;;;;;;;;;;;;;;;-144.99;100.00;67352.69;5075820;28;19938;-75
2023/11/26 01:33:09;;;;;;;;;;;;;;;-144.99;100.00;67352.69;5093812;28;19912;-75
2023/11/26 01:35:34;;;;;;;;;;;;;;;-144.99;100.00;67352.69;5093880;28;20284;-76
2023/11/26 01:38:00;;;;;;;;;;;;;;;-144.99;100.00;67352.69;5075608;28;19916;-75
2023/11/26 01:40:25;;;;;;;;;;;;;;;-144.99;100.00;67352.69;5093689;28;19912;-75
2023/11/26 01:42:50;;;;;;;;;;;;;;;-144.99;100.00;67352.69;5075460;28;20403;-75
2023/11/26 01:45:16;;;;;;;;;;;;;;;-144.99;100.00;67352.69;5093583;28;19912;-75
2023/11/26 01:47:41;;;;;;;;;;;;;;;-144.99;100.00;67352.69;5093465;28;19989;-75
2023/11/26 01:50:08;;;;;;;;;;;;;;;-144.99;100.00;67352.69;5093235;28;20434;-76
2023/11/26 01:52:34;;;;;;;;;;;;;;;-144.99;100.00;67352.69;5085354;28;19916;-76
2023/11/26 01:54:59;;;;;;;;;;;;;;;-144.99;100.00;67352.69;5093247;28;20397;-75
2023/11/26 01:57:24;;;;;;;;;;;;;;;-144.99;100.00;67352.69;5093204;28;19965;-76
2023/11/26 01:59:50;;;;;;;;;;;;;;;-144.99;100.00;67352.69;5075272;28;19912;-75
2023/11/26 02:02:15;;;;;;;;;;;;;;;-144.99;100.00;67352.69;5093376;28;19998;-75
2023/11/26 02:04:41;;;;;;;;;;;;;;;-144.99;100.00;67352.69;5075084;28;20277;-76
2023/11/26 02:07:06;;;;;;;;;;;;;;;-144.99;100.00;67352.69;5093080;28;20002;-75
2023/11/26 02:09:32;;;;;;;;;;;;;;;-144.99;100.00;67352.69;5093024;28;19923;-75
2023/11/26 02:11:58;;;;;;;;;;;;;;;-144.99;100.00;67352.69;5093138;28;20361;-76
2023/11/26 02:14:23;;;;;;;;;;;;;;;-144.99;100.00;67352.69;5074810;28;19969;-75
2023/11/26 02:16:49;;;;;;;;;;;;;;;-144.99;100.00;67352.69;5092769;28;19912;-75
2023/11/26 02:19:14;;;;;;;;;;;;;;;-144.99;100.00;67352.69;5074888;28;19913;-76
2023/11/26 02:21:40;;;;;;;;;;;;;;;-144.99;100.00;67352.69;5092923;28;20287;-75
2023/11/26 02:24:08;;;;;;;;;;;;;;;-144.99;100.00;67352.69;5092813;28;20348;-76
2023/11/26 02:26:33;;;;;;;;;;;;;;;-144.99;100.00;67352.69;5092669;28;19923;-76
2023/11/26 02:28:58;;;;;;;;;;;;;;;-144.99;100.00;67352.69;5092977;28;19912;-76
2023/11/26 02:31:24;;;;;;;;;;;;;;;-144.99;100.00;67352.69;5092808;28;19962;-75
2023/11/26 02:33:49;;;;;;;;;;;;;;;-144.99;100.00;67352.69;5074620;28;19961;-75
2023/11/26 02:36:14;;;;;;;;;;;;;;;-144.99;100.00;67352.69;5092196;28;19912;-75
2023/11/26 02:38:39;;;;;;;;;;;;;;;-144.99;100.00;67352.69;5092506;28;20499;-75
2023/11/26 02:41:04;;;;;;;;;;;;;;;-144.99;100.00;67352.69;5074899;28;19912;-75
2023/11/26 02:43:30;;;;;;;;;;;;;;;-144.99;100.00;67352.69;5092456;28;19912;-76
2023/11/26 02:45:57;;;;;;;;;;;;;;;-144.99;100.00;67352.69;5092607;28;19912;-75
2023/11/26 02:48:24;;;;;;;;;;;;;;;-144.99;100.00;67352.69;5092519;28;20406;-75
2023/11/26 02:50:49;;;;;;;;;;;;;;;-144.99;100.00;67352.69;5092511;28;19916;-76
2023/11/26 02:53:14;;;;;;;;;;;;;;;-144.99;100.00;67352.69;5092369;28;20013;-75
2023/11/26 02:55:40;;;;;;;;;;;;;;;-144.99;100.00;67352.69;5092515;28;19966;-75
2023/11/26 02:58:05;;;;;;;;;;;;;;;-144.99;100.00;67352.69;5092528;28;19952;-75
2023/11/26 03:00:30;;;;;;;;;;;;;;;-144.99;100.00;67352.69;5092422;28;20365;-75
2023/11/26 03:02:56;;;;;;;;;;;;;;;-144.99;100.00;67352.69;5074285;28;19965;-75
2023/11/26 03:05:21;;;;;;;;;;;;;;;-144.99;100.00;67352.69;5092296;28;19916;-76
2023/11/26 03:07:50;;;;;;;;;;;;;;;-144.99;100.00;67352.69;5092042;28;19913;-75
2023/11/26 03:13:12;;;;;;;;;;;;;;;-144.99;100.00;67352.69;5092378;28;19919;-76
2023/11/26 03:15:38;;;;;;;;;;;;;;;-144.99;100.00;67352.69;5092280;28;19912;-75
2023/11/26 03:18:07;;;;;;;;;;;;;;;-144.99;100.00;67352.69;5092099;28;19912;-76
2023/11/26 03:20:33;;;;;;;;;;;;;;;-144.99;100.00;67352.69;5092059;28;19935;-75
2023/11/26 03:22:58;;;;;;;;;;;;;;;-144.99;100.00;67352.69;5114533;22;19924;-82
2023/11/26 03:25:24;;;;;;;;;;;;;;;-144.99;100.00;67352.69;5075099;28;19920;-82
2023/11/26 03:27:52;;;;;;;;;;;;;;;-144.99;100.00;67352.69;5074877;28;19920;-82
2023/11/26 03:30:17;;;;;;;;;;;;;;;-144.99;100.00;67352.69;5093917;28;20259;-83
2023/11/26 03:32:43;;;;;;;;;;;;;;;-144.99;100.00;67352.69;5080075;28;19919;-83
2023/11/26 03:35:08;;;;;;;;;;;;;;;-144.99;100.00;67352.69;5088100;28;19919;-82
2023/11/26 03:37:33;;;;;;;;;;;;;;;-144.99;100.00;67352.69;5095056;28;19998;-83
2023/11/26 03:39:58;;;;;;;;;;;;;;;-144.99;100.00;67352.69;5095131;28;19916;-82
2023/11/26 03:42:24;;;;;;;;;;;;;;;-144.99;100.00;67352.69;5113077;28;19923;-83
2023/11/26 03:44:49;;;;;;;;;;;;;;;-144.99;100.00;67352.69;5113745;28;19911;-82
2023/11/26 03:47:16;;;;;;;;;;;;;;;-144.99;100.00;67352.69;5098111;28;19983;-82
2023/11/26 03:49:41;;;;;;;;;;;;;;;-144.99;100.00;67352.69;5117893;28;19912;-83
2023/11/26 03:52:08;;;;;;;;;;;;;;;-144.99;100.00;67352.69;5117497;28;19961;-82
2023/11/26 03:54:33;;;;;;;;;;;;;;;-144.99;100.00;67352.69;5105506;28;20421;-82
2023/11/26 03:56:59;;;;;;;;;;;;;;;-144.99;100.00;67352.69;5077288;28;19967;-83
2023/11/26 03:59:25;;;;;;;;;;;;;;;-144.99;100.00;67352.69;5078392;28;19966;-83
2023/11/26 04:01:51;;;;;;;;;;;;;;;-144.99;100.00;67352.69;5077881;28;19916;-82
2023/11/26 04:04:16;;;;;;;;;;;;;;;-144.99;100.00;67352.69;5096896;28;19961;-82
2023/11/26 04:06:42;;;;;;;;;;;;;;;-144.99;100.00;67352.69;5096952;28;19916;-83
2023/11/26 04:09:07;;;;;;;;;;;;;;;-144.99;100.00;67352.69;5096876;28;20378;-83
2023/11/26 04:11:32;;;;;;;;;;;;;;;-144.99;100.00;67352.69;5071129;28;19913;-82
2023/11/26 04:13:57;;;;;;;;;;;;;;;-144.99;100.00;67352.69;5096909;28;20378;-83
2023/11/26 04:16:23;;;;;;;;;;;;;;;-144.99;100.00;67352.69;5097015;28;19912;-83
2023/11/26 04:18:48;;;;;;;;;;;;;;;-144.99;100.00;67352.69;5078528;28;19912;-83
2023/11/26 04:21:13;;;;;;;;;;;;;;;-144.99;100.00;67352.69;5078403;28;20016;-84
2023/11/26 04:23:38;;;;;;;;;;;;;;;-144.99;100.00;67352.69;5096993;28;19926;-83
2023/11/26 04:26:04;;;;;;;;;;;;;;;-144.99;100.00;67352.69;5078239;28;20432;-84
2023/11/26 04:28:30;;;;;;;;;;;;;;;-144.99;100.00;67352.69;5089406;28;19955;-82
2023/11/26 04:30:56;;;;;;;;;;;;;;;-144.99;100.00;67352.69;5078722;28;19912;-82
2023/11/26 04:33:21;;;;;;;;;;;;;;;-144.99;100.00;67352.69;5078725;28;20003;-82
2023/11/26 04:35:46;;;;;;;;;;;;;;;-144.99;100.00;67352.69;5078787;28;19960;-84
2023/11/26 04:38:11;;;;;;;;;;;;;;;-144.99;100.00;67352.69;5096653;28;20375;-82
2023/11/26 04:40:37;;;;;;;;;;;;;;;-144.99;100.00;67352.69;5078534;28;20310;-83
2023/11/26 04:43:02;;;;;;;;;;;;;;;-144.99;100.00;67352.69;5078781;28;19912;-83
2023/11/26 04:45:27;;;;;;;;;;;;;;;-144.99;100.00;67352.69;5081190;28;19958;-83
2023/11/26 04:47:53;;;;;;;;;;;;;;;-144.99;100.00;67352.69;5117250;28;19941;-83
2023/11/26 04:50:18;;;;;;;;;;;;;;;-144.99;100.00;67352.69;5097194;28;19911;-82
2023/11/26 04:52:43;;;;;;;;;;;;;;;-144.99;100.00;67352.69;5096544;28;20337;-82
2023/11/26 04:55:09;;;;;;;;;;;;;;;-144.99;100.00;67352.69;5096831;28;19912;-84
2023/11/26 04:57:35;;;;;;;;;;;;;;;-144.99;100.00;67352.69;5108211;28;19911;-83
2023/11/26 05:00:00;;;;;;;;;;;;;;;-144.99;100.00;67352.69;5091343;28;20447;-83
2023/11/26 05:02:28;;;;;;;;;;;;;;;-144.99;100.00;67352.69;5078033;28;19916;-83
2023/11/26 05:04:54;;;;;;;;;;;;;;;-144.99;100.00;67352.69;5096368;28;20002;-83
2023/11/26 05:07:19;;;;;;;;;;;;;;;-144.99;100.00;67352.69;5096498;28;20412;-84
2023/11/26 05:09:44;;;;;;;;;;;;;;;-144.99;100.00;67352.69;5096382;28;19912;-83
2023/11/26 05:12:09;;;;;;;;;;;;;;;-144.99;100.00;67352.69;5095970;28;19990;-84
2023/11/26 05:14:35;;;;;;;;;;;;;;;-144.99;100.00;67352.69;5096550;28;19999;-84
2023/11/26 05:17:00;;;;;;;;;;;;;;;-144.99;100.00;67352.69;5096403;28;20003;-84
2023/11/26 05:19:25;;;;;;;;;;;;;;;-144.99;100.00;67352.69;5077482;28;20370;-84
2023/11/26 05:21:50;;;;;;;;;;;;;;;-144.99;100.00;67352.69;5095737;28;19973;-83
2023/11/26 05:24:16;;;;;;;;;;;;;;;-144.99;100.00;67352.69;5078132;28;20378;-83
2023/11/26 05:26:41;;;;;;;;;;;;;;;-144.99;100.00;67352.69;5095849;28;19916;-83
2023/11/26 05:29:08;;;;;;;;;;;;;;;-144.99;100.00;67352.69;5078054;28;19916;-83
2023/11/26 05:31:34;;;;;;;;;;;;;;;-144.99;100.00;67352.69;5090197;28;19915;-83
2023/11/26 05:33:59;;;;;;;;;;;;;;;-144.99;100.00;67352.69;5098372;28;20076;-83
2023/11/26 05:36:25;;;;;;;;;;;;;;;-144.99;100.00;67352.69;5098218;28;19912;-83
2023/11/26 05:38:50;;;;;;;;;;;;;;;-144.99;100.00;67352.69;5096243;28;19912;-84
2023/11/26 05:41:18;;;;;;;;;;;;;;;-144.99;100.00;67352.69;5096230;28;20305;-83
2023/11/26 05:43:43;;;;;;;;;;;;;;;-144.99;100.00;67352.69;5096288;28;20002;-83
2023/11/26 05:46:09;;;;;;;;;;;;;;;-144.99;100.00;67352.69;5114263;28;20427;-83
2023/11/26 05:48:34;;;;;;;;;;;;;;;-144.99;100.00;67352.69;5092300;28;19912;-84
2023/11/26 05:50:59;;;;;;;;;;;;;;;-144.99;100.00;67352.69;5109432;28;19951;-84
2023/11/26 05:53:25;;;;;;;;;;;;;;;-144.99;100.00;67352.69;5095520;28;20294;-82
2023/11/26 05:55:50;;;;;;;;;;;;;;;-144.99;100.00;67352.69;5095958;28;19916;-83
2023/11/26 05:58:16;;;;;;;;;;;;;;;-144.99;100.00;67352.69;5087169;28;19919;-83
2023/11/26 06:00:41;;;;;;;;;;;;;;;-144.99;100.00;67352.69;5095633;28;19923;-83
2023/11/26 06:03:07;;;;;;;;;;;;;;;-144.99;100.00;67352.69;5113910;28;19912;-83
2023/11/26 06:05:33;;;;;;;;;;;;;;;-144.99;100.00;67352.69;5114286;28;19915;-83
2023/11/26 06:07:58;;;;;;;;;;;;;;;-144.99;100.00;67352.69;5099956;28;19961;-84
2023/11/26 06:10:24;;;;;;;;;;;;;;;-144.99;100.00;67352.69;5117380;28;19916;-83
2023/11/26 06:12:49;;;;;;;;;;;;;;;-144.99;100.00;67352.69;5117759;28;20387;-84
2023/11/26 06:15:14;;;;;;;;;;;;;;;-144.99;100.00;67352.69;5109716;28;19912;-84
2023/11/26 06:17:40;;;;;;;;;;;;;;;-144.99;100.00;67352.69;5095422;28;20394;-84
2023/11/26 06:20:08;;;;;;;;;;;;;;;-144.99;100.00;67352.69;5117291;28;19916;-85
2023/11/26 06:22:33;;;;;;;;;;;;;;;-144.99;100.00;67352.69;5105060;28;19916;-83
2023/11/26 06:24:59;;;;;;;;;;;;;;;-144.99;100.00;67352.69;5112993;28;19921;-84
2023/11/26 06:27:24;;;;;;;;;;;;;;;-144.99;100.00;67352.69;5125038;28;19918;-83
2023/11/26 06:29:49;;;;;;;;;;;;;;;-144.99;100.00;67352.69;5096370;28;19912;-84
2023/11/26 06:32:15;;;;;;;;;;;;;;;-144.99;100.00;67352.69;5095609;28;19911;-83
2023/11/26 06:34:40;;;;;;;;;;;;;;;-144.99;100.00;67352.69;5109656;28;19995;-83
2023/11/26 06:37:05;;;;;;;;;;;;;;;-144.99;100.00;67352.69;5093755;28;19934;-83
2023/11/26 06:39:30;;;;;;;;;;;;;;;-144.99;100.00;67352.69;5075610;28;19912;-83
2023/11/26 06:41:56;;;;;;;;;;;;;;;-144.99;100.00;67352.69;5075486;28;19912;-84
2023/11/26 06:44:21;;;;;;;;;;;;;;;-144.99;100.00;67352.69;5075677;28;19920;-83
2023/11/26 06:46:47;;;;;;;;;;;;;;;-144.99;100.00;67352.69;5075731;28;20398;-84
2023/11/26 06:49:12;;;;;;;;;;;;;;;-144.99;100.00;67352.69;5075759;28;19934;-84
2023/11/26 06:51:39;;;;;;;;;;;;;;;-144.99;100.00;67352.69;5093484;28;19938;-83
2023/11/26 06:54:04;;;;;;;;;;;;;;;-144.99;100.00;67352.69;5075259;28;19916;-84
2023/11/26 06:56:30;;;;;;;;;;;;;;;-144.99;100.00;67352.69;5093668;28;19919;-83
2023/11/26 06:58:55;;;;;;;;;;;;;;;-144.99;100.00;67352.69;5075912;28;19913;-83
2023/11/26 07:01:20;;;;;;;;;;;;;;;-144.99;100.00;67352.69;5095998;28;20309;-83
2023/11/26 07:03:47;;;;;;;;;;;;;;;-144.99;100.00;67352.69;5078838;28;19934;-83
2023/11/26 07:06:12;;;;;;;;;;;;;;;-144.99;100.00;67352.69;5094653;28;19972;-84
2023/11/26 07:08:38;;;;;;;;;;;;;;;-144.99;100.00;67352.69;5097609;28;19911;-84
2023/11/26 07:11:04;;;;;;;;;;;;;;;-144.99;100.00;67352.69;5088290;28;19971;-84
2023/11/26 07:13:29;;;;;;;;;;;;;;;-144.99;100.00;67352.69;5114541;28;19947;-83
2023/11/26 07:15:55;;;;;;;;;;;;;;;-144.99;100.00;67352.69;5111858;28;19971;-83
2023/11/26 07:18:20;;;;;;;;;;;;;;;-144.99;100.00;67352.69;5095562;28;19919;-83
2023/11/26 07:20:46;;;;;;;;;;;;;;;-144.99;100.00;67352.69;5079221;28;19916;-83
2023/11/26 07:23:11;;;;;;;;;;;;;;;-144.99;100.00;67352.69;5082568;28;19916;-84
2023/11/26 07:25:39;;;;;;;;;;;;;;;-144.99;100.00;67352.69;5100090;28;20424;-83
2023/11/26 07:28:04;;;;;;;;;;;;;;;-144.99;100.00;67352.69;5101173;28;19912;-83
2023/11/26 07:30:29;;;;;;;;;;;;;;;-144.99;100.00;67352.69;5101049;28;19912;-83
2023/11/26 07:32:55;;;;;;;;;;;;;;;-144.99;100.00;67352.69;5098657;28;19913;-83
2023/11/26 07:35:20;;;;;;;;;;;;;;;-144.99;100.00;67352.69;5097664;28;19912;-84
2023/11/26 07:37:45;;;;;;;;;;;;;;;-144.99;100.00;67352.69;5078651;28;19912;-83
2023/11/26 07:40:13;;;;;;;;;;;;;;;-144.99;100.00;67352.69;5079231;28;20386;-83
2023/11/26 07:42:39;;;;;;;;;;;;;;;-144.99;100.00;67352.69;5079498;28;19920;-83
2023/11/26 07:45:04;;;;;;;;;;;;;;;-144.99;100.00;67352.69;5079557;28;19912;-83
2023/11/26 07:47:29;;;;;;;;;;;;;;;-144.99;100.00;67352.69;5097815;28;20378;-84
2023/11/26 07:49:55;;;;;;;;;;;;;;;-144.99;100.00;67352.69;5097921;28;19912;-84
2023/11/26 07:52:20;;;;;;;;;;;;;;;-144.99;100.00;67352.69;5098914;28;19916;-83
2023/11/26 07:54:45;;;;;;;;;;;;;;;-144.99;100.00;67352.69;5099865;28;19912;-84
2023/11/26 07:57:11;;;;;;;;;;;;;;;-144.99;100.00;67352.69;5081815;28;19965;-83
2023/11/26 07:59:36;;;;;;;;;;;;;;;-144.99;100.00;67352.69;5097547;28;19923;-83
2023/11/26 08:02:01;;;;;;;;;;;;;;;-144.99;100.00;67352.69;5078756;28;19912;-83
2023/11/26 08:04:28;;;;;;;;;;;;;;;-144.99;100.00;67352.69;5097701;28;20594;-83
2023/11/26 08:06:54;;;;;;;;;;;;;;;-144.99;100.00;67352.69;5077262;28;19924;-84
2023/11/26 08:09:20;;;;;;;;;;;;;;;-144.99;100.00;67352.69;5095268;28;19912;-82
2023/11/26 08:11:46;;;;;;;;;;;;;;;-144.99;100.00;67352.69;5078267;28;20439;-82
2023/11/26 08:14:15;;;;;;;;;;;;;;;-144.99;100.00;67352.69;5079015;28;19912;-82
2023/11/26 08:16:42;;;;;;;;;;;;;;;-144.99;100.00;67352.69;5096685;28;19912;-82
2023/11/26 08:19:17;;;;;;;;;;;;;;;-144.99;100.00;67352.69;5078516;28;20390;-84
2023/11/26 08:21:43;;;;;;;;;;;;;;;-144.99;100.00;67352.69;5093008;28;19924;-82
2023/11/26 08:24:13;;;;;;;;;;;;;;;-144.99;100.00;67352.69;5100272;28;20006;-84
2023/11/26 08:26:39;;;;;;;;;;;;;;;-144.99;100.00;67352.69;5092648;28;20321;-83
2023/11/26 08:29:05;;;;;;;;;;;;;;;-144.99;100.00;67352.69;5076339;28;19912;-83
2023/11/26 08:31:31;;;;;;;;;;;;;;;-144.99;100.00;67352.69;5071300;28;19912;-81
2023/11/26 08:33:57;;;;;;;;;;;;;;;-144.99;100.00;67352.69;5078298;28;19916;-81
2023/11/26 08:36:23;;;;;;;;;;;;;;;-144.99;100.00;67352.69;5098039;28;20524;-82
2023/11/26 08:38:50;;;;;;;;;;;;;;;-144.99;100.00;67352.69;5078948;28;20459;-82
2023/11/26 08:41:20;;;;;;;;;;;;;;;-144.99;100.00;67352.69;5087944;28;19932;-83
2023/11/26 08:43:45;;;;;;;;;;;;;;;-144.99;100.00;67352.69;5096133;28;19912;-82
2023/11/26 08:46:12;;;;;;;;;;;;;;;-144.99;100.00;67352.69;5095714;28;19933;-82
2023/11/26 08:48:37;;;;;;;;;;;;;;;-144.99;100.00;67352.69;5087069;28;19966;-82
2023/11/26 08:51:02;;;;;;;;;;;;;;;-144.99;100.00;67352.69;5078413;28;19912;-82
2023/11/26 08:53:29;;;;;;;;;;;;;;;-144.99;100.00;67352.69;5105757;28;19958;-83
2023/11/26 08:55:55;;;;;;;;;;;;;;;-144.99;100.00;67352.69;5090806;28;19912;-82
2023/11/26 08:58:20;;;;;;;;;;;;;;;-144.99;100.00;67352.69;5078944;28;20293;-87
2023/11/26 09:00:45;;;;;;;;;;;;;;;-144.99;100.00;67352.69;5072003;28;20010;-84
2023/11/26 09:03:12;;;;;;;;;;;;;;;-144.99;100.00;67352.69;5093488;28;19911;-83
2023/11/26 09:05:37;;;;;;;;;;;;;;;-144.99;100.00;67352.69;5107536;28;19923;-83
2023/11/26 09:08:02;;;;;;;;;;;;;;;-144.99;100.00;67352.69;5096956;28;19911;-83
2023/11/26 09:10:28;;;;;;;;;;;;;;;-144.99;100.00;67352.69;5109607;28;19904;-86
2023/11/26 09:12:53;;;;;;;;;;;;;;;-144.99;100.00;67352.69;5117534;28;19959;-86
2023/11/26 09:15:19;;;;;;;;;;;;;;;-144.99;100.00;67352.69;5121397;28;19903;-86
2023/11/26 09:17:44;;;;;;;;;;;;;;;-144.99;100.00;67352.69;5101066;28;19900;-85
2023/11/26 09:20:12;;;;;;;;;;;;;;;-144.99;100.00;67352.69;5118941;28;19946;-86
2023/11/26 09:22:38;;;;;;;;;;;;;;;-144.99;100.00;67352.69;5117803;28;19931;-86
2023/11/26 09:25:04;;;;;;;;;;;;;;;-144.99;100.00;67352.69;5099745;28;20374;-83
2023/11/26 09:27:29;;;;;;;;;;;;;;;-144.99;100.00;67352.69;5095843;28;19919;-85
2023/11/26 09:29:55;;;;;;;;;;;;;;;-144.99;100.00;67352.69;5088111;22;20015;-80
2023/11/26 09:32:20;;;;;;;;;;;;;;;-144.99;100.00;67352.69;5063537;28;19947;-79
2023/11/26 09:34:45;;;;;;;;;;;;;;;-144.99;100.00;67352.69;5049999;28;19949;-78
2023/11/26 09:37:10;;;;;;;;;;;;;;;-144.99;100.00;67352.69;5055928;28;19920;-79
2023/11/26 09:39:36;;;;;;;;;;;;;;;-144.99;100.00;67352.69;5042458;28;19920;-79
2023/11/26 09:42:02;;;;;;;;;;;;;;;-144.99;100.00;67352.69;5037125;28;19913;-79
2023/11/26 09:44:28;;;;;;;;;;;;;;;-144.99;100.00;67352.69;5065123;28;20003;-79
2023/11/26 09:46:53;;;;;;;;;;;;;;;-144.99;100.00;67352.69;5075007;28;19944;-79
2023/11/26 09:49:18;;;;;;;;;;;;;;;-144.99;100.00;67352.69;5065561;28;19966;-78
2023/11/26 09:51:43;;;;;;;;;;;;;;;-144.99;100.00;67352.69;5054429;28;19920;-78
2023/11/26 09:54:10;;;;;;;;;;;;;;;-144.99;100.00;67352.69;5062575;28;19913;-78
2023/11/26 09:56:35;;;;;;;;;;;;;;;-144.99;100.00;67352.69;5052334;28;19917;-78
2023/11/26 09:59:03;;;;;;;;;;;;;;;-144.99;100.00;67352.69;5059839;28;20379;-78
2023/11/26 10:01:28;;;;;;;;;;;;;;;-144.99;100.00;67352.69;5056404;28;19960;-78
2023/11/26 10:03:53;;;;;;;;;;;;;;;-144.99;100.00;67352.69;5073568;28;19919;-78
2023/11/26 10:06:19;;;;;;;;;;;;;;;-144.99;100.00;67352.69;5073976;28;19912;-78
2023/11/26 10:08:44;;;;;;;;;;;;;;;-144.99;100.00;67352.69;5074226;28;20391;-79
2023/11/26 10:11:09;;;;;;;;;;;;;;;-144.99;100.00;67352.69;5073878;28;19912;-79
2023/11/26 10:13:38;;;;;;;;;;;;;;;-144.99;100.00;67352.69;5074337;28;19923;-79
2023/11/26 10:16:04;;;;;;;;;;;;;;;-144.99;100.00;67352.69;5055791;28;20402;-79
2023/11/26 10:18:39;;;;;;;;;;;;;;;-144.99;100.00;67352.69;5072769;28;19966;-79
2023/11/26 10:21:04;;;;;;;;;;;;;;;-144.99;100.00;67352.69;5056513;28;19916;-79
2023/11/26 10:23:35;;;;;;;;;;;;;;;-144.99;100.00;67352.69;5071649;28;20388;-79
2023/11/26 10:26:01;;;;;;;;;;;;;;;-144.99;100.00;67352.69;5054245;28;20333;-79
2023/11/26 10:28:26;;;;;;;;;;;;;;;-144.99;100.00;67352.69;5065278;28;19965;-79
2023/11/26 10:30:51;;;;;;;;;;;;;;;-144.99;100.00;67352.69;5074850;28;19946;-79
2023/11/26 10:33:17;;;;;;;;;;;;;;;-144.99;100.00;67352.69;5073070;28;19917;-79
2023/11/26 10:35:43;;;;;;;;;;;;;;;-144.99;100.00;67352.69;5074576;28;19920;-79
2023/11/26 10:38:09;;;;;;;;;;;;;;;-144.99;100.00;67352.69;5074965;28;19958;-79
2023/11/26 10:40:35;;;;;;;;;;;;;;;-144.99;100.00;67352.69;5068002;28;19917;-78
2023/11/26 10:43:01;;;;;;;;;;;;;;;-144.99;100.00;67352.69;5052415;28;20356;-79
2023/11/26 10:45:27;;;;;;;;;;;;;;;-144.99;100.00;67352.69;5050857;28;19943;-79
2023/11/26 10:47:54;;;;;;;;;;;;;;;-144.99;100.00;67352.69;5050946;28;19951;-79
2023/11/26 10:50:21;;;;;;;;;;;;;;;-144.99;100.00;67352.69;5054032;28;19919;-79
2023/11/26 10:52:53;;;;;;;;;;;;;;;-144.99;100.00;67352.69;5060824;28;19917;-79
2023/11/26 10:55:24;;;;;;;;;;;;;;;-144.99;100.00;67352.69;5071897;28;20404;-79
2023/11/26 10:57:58;;;;;;;;;;;;;;;-144.99;100.00;67352.69;5054385;28;19916;-79
2023/11/26 11:00:24;;;;;;;;;;;;;;;-144.99;100.00;67352.69;5072191;28;19921;-79
2023/11/26 11:02:49;;;;;;;;;;;;;;;-144.99;100.00;67352.69;5054655;28;19913;-79
2023/11/26 11:05:15;;;;;;;;;;;;;;;-144.99;100.00;67352.69;5072256;28;20409;-79
2023/11/26 11:07:41;;;;;;;;;;;;;;;-144.99;100.00;67352.69;5054418;28;20204;-80
2023/11/26 11:10:25;;;;;;;;;;;;;;;-144.99;100.00;67352.69;5055363;28;20404;-80
2023/11/26 11:12:50;;;;;;;;;;;;;;;-144.99;100.00;67352.69;5065295;28;19918;-79
2023/11/26 11:15:16;;;;;;;;;;;;;;;-144.99;100.00;67352.69;5073094;28;20375;-80
2023/11/26 11:17:41;;;;;;;;;;;;;;;-144.99;100.00;67352.69;5050569;28;20011;-80
2023/11/26 11:20:07;;;;;;;;;;;;;;;-144.99;100.00;67352.69;5053800;28;19921;-80
2023/11/26 11:22:33;;;;;;;;;;;;;;;-144.99;100.00;67352.69;5054398;28;19912;-80
2023/11/26 11:25:05;;;;;;;;;;;;;;;-144.99;100.00;67352.69;5068133;28;19920;-80
2023/11/26 11:27:47;;;;;;;;;;;;;;;-144.99;100.00;67352.69;5041672;28;19913;-80
2023/11/26 11:30:41;;;;;;;;;;;;;;;-144.99;100.00;67352.69;5061251;28;20316;-83
2023/11/26 11:33:10;;;;;;;;;;;;;;;-144.99;100.00;67352.69;5054474;28;19913;-79
2023/11/26 11:35:45;;;;;;;;;;;;;;;-144.99;100.00;67352.69;5054495;28;20303;-80
2023/11/26 11:38:11;;;;;;;;;;;;;;;-144.99;100.00;67352.69;5072836;28;19912;-80
2023/11/26 11:40:55;;;;;;;;;;;;;;;-144.99;100.00;67352.69;5074217;28;19917;-80
2023/11/26 11:43:22;;;;;;;;;;;;;;;-144.99;100.00;67352.69;5074763;28;20290;-79
2023/11/26 11:45:47;;;;;;;;;;;;;;;-144.99;100.00;67352.69;5066766;28;19912;-80
2023/11/26 11:48:32;;;;;;;;;;;;;;;-144.99;100.00;67352.69;5036972;28;20459;-80
2023/11/26 11:50:58;;;;;;;;;;;;;;;-144.99;100.00;67352.69;5076497;28;19916;-80
2023/11/26 11:53:23;;;;;;;;;;;;;;;-144.99;100.00;67352.69;5077951;28;19920;-80
2023/11/26 11:55:59;;;;;;;;;;;;;;;-144.99;100.00;67352.69;5077120;28;19917;-80
2023/11/26 11:58:24;;;;;;;;;;;;;;;-144.99;100.00;67352.69;5077163;28;19919;-80
2023/11/26 12:00:55;;;;;;;;;;;;;;;-144.99;100.00;67352.69;5077206;28;20439;-80
2023/11/26 12:03:22;;;;;;;;;;;;;;;-144.99;100.00;67352.69;5075917;28;20002;-80
2023/11/26 12:05:50;;;;;;;;;;;;;;;-144.99;100.00;67352.69;5076380;28;19919;-80
2023/11/26 12:08:16;;;;;;;;;;;;;;;-144.99;100.00;67352.69;5059070;28;20297;-80
2023/11/26 12:10:42;;;;;;;;;;;;;;;-144.99;100.00;67352.69;5074730;28;19948;-80
2023/11/26 12:13:08;;;;;;;;;;;;;;;-144.99;100.00;67352.69;5058454;28;19938;-80
2023/11/26 12:15:38;;;;;;;;;;;;;;;-144.99;100.00;67352.69;5080494;28;19936;-79